createdAt,value
2023-03-22T00:00:18.879Z,11.63
2023-03-22T00:01:21.531Z,11.63
2023-03-22T00:02:23.416Z,11.58
2023-03-22T00:03:25.146Z,11.58
2023-03-22T00:04:26.983Z,11.61
2023-03-22T00:05:28.778Z,11.61
2023-03-22T00:06:30.589Z,11.61
2023-03-22T00:07:32.379Z,11.58
2023-03-22T00:08:34.180Z,11.57
2023-03-22T00:09:36.028Z,11.56
2023-03-22T00:10:38.238Z,11.56
2023-03-22T00:11:40.244Z,11.56
2023-03-22T00:12:42.061Z,11.55
2023-03-22T00:13:43.846Z,11.53
2023-03-22T00:14:45.674Z,11.53
2023-03-22T00:15:47.487Z,11.52
2023-03-22T00:16:49.467Z,11.55
2023-03-22T00:17:51.284Z,11.55
2023-03-22T00:18:53.101Z,11.54
2023-03-22T00:19:54.986Z,11.52
2023-03-22T00:20:56.798Z,11.52
2023-03-22T00:21:58.604Z,11.51
2023-03-22T00:23:00.418Z,11.52
2023-03-22T00:24:02.219Z,11.51
2023-03-22T00:25:04.051Z,11.50
2023-03-22T00:26:06.271Z,11.49
2023-03-22T00:27:08.069Z,11.49
2023-03-22T00:28:09.866Z,11.49
2023-03-22T00:29:11.674Z,11.48
2023-03-22T00:30:13.529Z,11.48
2023-03-22T00:31:15.349Z,11.49
2023-03-22T00:32:17.145Z,11.49
2023-03-22T00:33:18.954Z,11.49
2023-03-22T00:34:20.753Z,11.49
2023-03-22T00:35:22.625Z,11.49
2023-03-22T00:36:24.420Z,11.49
2023-03-22T00:37:26.207Z,11.47
2023-03-22T00:38:41.414Z,11.48
2023-03-22T00:39:31.649Z,11.47
2023-03-22T00:40:33.500Z,11.48
2023-03-22T00:41:35.286Z,11.47
2023-03-22T00:42:37.092Z,11.46
2023-03-22T00:43:38.890Z,11.46
2023-03-22T00:44:40.713Z,11.46
2023-03-22T00:45:42.471Z,11.46
2023-03-22T00:46:44.261Z,11.48
2023-03-22T00:47:46.146Z,11.48
2023-03-22T00:48:48.115Z,11.48
2023-03-22T00:49:49.920Z,11.48
2023-03-22T00:50:51.740Z,11.47
2023-03-22T00:51:53.529Z,11.49
2023-03-22T00:52:55.340Z,11.48
2023-03-22T00:53:57.167Z,11.49
2023-03-22T00:54:58.966Z,11.49
2023-03-22T00:56:00.815Z,11.49
2023-03-22T00:57:02.609Z,11.50
2023-03-22T00:58:04.409Z,11.49
2023-03-22T00:59:06.217Z,11.49
2023-03-22T01:00:08.116Z,11.49
2023-03-22T01:01:10.069Z,11.48
2023-03-22T01:02:11.810Z,11.48
2023-03-22T01:03:13.665Z,11.46
2023-03-22T01:04:15.452Z,11.48
2023-03-22T01:05:17.119Z,11.48
2023-03-22T01:06:19.022Z,11.48
2023-03-22T01:07:20.814Z,11.48
2023-03-22T01:08:22.720Z,11.48
2023-03-22T01:09:24.527Z,11.48
2023-03-22T01:10:26.318Z,11.48
2023-03-22T01:11:28.169Z,11.47
2023-03-22T01:12:29.967Z,11.46
2023-03-22T01:13:31.780Z,11.46
2023-03-22T01:14:33.570Z,11.45
2023-03-22T01:15:35.379Z,11.44
2023-03-22T01:16:37.264Z,11.45
2023-03-22T01:17:39.133Z,11.44
2023-03-22T01:18:40.925Z,11.44
2023-03-22T01:19:42.721Z,11.44
2023-03-22T01:20:44.528Z,11.43
2023-03-22T01:21:46.379Z,11.43
2023-03-22T01:22:48.175Z,11.44
2023-03-22T01:23:49.970Z,11.42
2023-03-22T01:24:51.773Z,11.41
2023-03-22T01:25:53.565Z,11.40
2023-03-22T01:26:55.414Z,11.39
2023-03-22T01:27:57.233Z,11.39
2023-03-22T01:28:59.026Z,11.39
2023-03-22T01:30:00.830Z,11.39
2023-03-22T01:31:02.789Z,11.38
2023-03-22T01:32:04.704Z,11.39
2023-03-22T01:33:06.504Z,11.40
2023-03-22T01:34:08.299Z,11.40
2023-03-22T01:35:10.119Z,11.40
2023-03-22T01:36:12.370Z,11.40
2023-03-22T01:37:14.179Z,11.39
2023-03-22T01:38:15.982Z,11.40
2023-03-22T01:39:17.681Z,11.39
2023-03-22T01:40:19.493Z,11.39
2023-03-22T01:41:21.284Z,11.38
2023-03-22T01:42:23.111Z,11.39
2023-03-22T01:43:24.937Z,11.39
2023-03-22T01:44:26.737Z,11.39
2023-03-22T01:45:28.539Z,11.38
2023-03-22T01:46:30.476Z,11.39
2023-03-22T01:47:32.373Z,11.37
2023-03-22T01:48:34.222Z,11.37
2023-03-22T01:49:35.991Z,11.38
2023-03-22T01:50:37.980Z,11.37
2023-03-22T01:51:40.450Z,11.38
2023-03-22T01:52:43.474Z,11.39
2023-03-22T01:53:45.269Z,11.40
2023-03-22T01:54:47.069Z,11.42
2023-03-22T01:55:48.866Z,11.42
2023-03-22T01:56:50.679Z,11.43
2023-03-22T01:57:52.535Z,11.45
2023-03-22T01:58:54.324Z,11.45
2023-03-22T01:59:56.122Z,11.46
2023-03-22T02:00:57.920Z,11.47
2023-03-22T02:01:59.740Z,11.48
2023-03-22T02:03:01.637Z,11.49
2023-03-22T02:04:03.553Z,11.49
2023-03-22T02:05:05.356Z,11.50
2023-03-22T02:06:07.459Z,11.50
2023-03-22T02:07:09.269Z,11.51
2023-03-22T02:08:11.113Z,11.52
2023-03-22T02:09:12.936Z,11.50
2023-03-22T02:10:14.857Z,11.51
2023-03-22T02:11:16.652Z,11.52
2023-03-22T02:12:18.453Z,11.52
2023-03-22T02:13:20.302Z,11.52
2023-03-22T02:14:23.433Z,11.50
2023-03-22T02:15:25.459Z,11.51
2023-03-22T02:16:27.280Z,11.49
2023-03-22T02:17:29.086Z,11.49
2023-03-22T02:18:30.932Z,11.48
2023-03-22T02:19:32.741Z,11.48
2023-03-22T02:20:34.652Z,11.45
2023-03-22T02:21:36.463Z,11.45
2023-03-22T02:22:38.292Z,11.44
2023-03-22T02:23:40.136Z,11.45
2023-03-22T02:24:43.933Z,11.44
2023-03-22T02:25:45.460Z,11.42
2023-03-22T02:26:47.394Z,11.42
2023-03-22T02:27:49.175Z,11.41
2023-03-22T02:28:51.030Z,11.41
2023-03-22T02:29:52.833Z,11.40
2023-03-22T02:30:54.676Z,11.39
2023-03-22T02:31:56.456Z,11.39
2023-03-22T02:32:58.254Z,11.39
2023-03-22T02:34:00.104Z,11.39
2023-03-22T02:35:01.927Z,11.40
2023-03-22T02:36:03.729Z,11.41
2023-03-22T02:37:05.561Z,11.41
2023-03-22T02:38:07.370Z,11.42
2023-03-22T02:39:09.205Z,11.43
2023-03-22T02:40:11.523Z,11.43
2023-03-22T02:41:13.328Z,11.44
2023-03-22T02:42:15.131Z,11.44
2023-03-22T02:43:16.939Z,11.44
2023-03-22T02:44:18.763Z,11.47
2023-03-22T02:45:20.610Z,11.46
2023-03-22T02:46:22.511Z,11.47
2023-03-22T02:47:24.295Z,11.47
2023-03-22T02:48:26.197Z,11.48
2023-03-22T02:49:28.066Z,11.47
2023-03-22T02:50:29.867Z,11.47
2023-03-22T02:51:31.680Z,11.45
2023-03-22T02:52:33.499Z,11.45
2023-03-22T02:53:35.299Z,11.44
2023-03-22T02:54:37.132Z,11.44
2023-03-22T02:55:38.962Z,11.44
2023-03-22T02:56:40.787Z,11.43
2023-03-22T02:57:42.610Z,11.43
2023-03-22T02:58:44.411Z,11.42
2023-03-22T02:59:46.262Z,11.42
2023-03-22T03:00:48.086Z,11.41
2023-03-22T03:01:49.983Z,11.39
2023-03-22T03:02:51.801Z,11.38
2023-03-22T03:03:53.614Z,11.38
2023-03-22T03:04:55.468Z,11.37
2023-03-22T03:05:57.275Z,11.36
2023-03-22T03:06:59.084Z,11.35
2023-03-22T03:08:00.886Z,11.35
2023-03-22T03:09:02.725Z,11.34
2023-03-22T03:10:04.545Z,11.34
2023-03-22T03:11:06.360Z,11.34
2023-03-22T03:12:08.160Z,11.34
2023-03-22T03:13:09.969Z,11.34
2023-03-22T03:14:11.983Z,11.32
2023-03-22T03:15:13.837Z,11.32
2023-03-22T03:16:15.946Z,11.31
2023-03-22T03:17:17.735Z,11.30
2023-03-22T03:18:19.575Z,11.27
2023-03-22T03:19:21.387Z,11.26
2023-03-22T03:20:23.532Z,11.23
2023-03-22T03:21:25.802Z,11.23
2023-03-22T03:22:27.636Z,11.21
2023-03-22T03:23:29.451Z,11.22
2023-03-22T03:24:31.265Z,11.20
2023-03-22T03:25:33.150Z,11.18
2023-03-22T03:26:34.974Z,11.17
2023-03-22T03:27:36.857Z,11.16
2023-03-22T03:28:38.666Z,11.15
2023-03-22T03:29:40.475Z,11.13
2023-03-22T03:30:42.315Z,11.11
2023-03-22T03:31:44.199Z,11.10
2023-03-22T03:32:46.044Z,11.08
2023-03-22T03:33:47.829Z,11.06
2023-03-22T03:34:49.726Z,11.05
2023-03-22T03:35:51.610Z,11.03
2023-03-22T03:36:53.429Z,11.02
2023-03-22T03:37:55.223Z,11.00
2023-03-22T03:38:57.036Z,10.98
2023-03-22T03:39:58.830Z,10.97
2023-03-22T03:41:00.679Z,10.97
2023-03-22T03:42:02.504Z,10.96
2023-03-22T03:43:04.296Z,10.94
2023-03-22T03:44:06.096Z,10.93
2023-03-22T03:45:07.900Z,10.92
2023-03-22T03:46:09.905Z,10.92
2023-03-22T03:47:11.651Z,10.93
2023-03-22T03:48:13.510Z,10.93
2023-03-22T03:49:15.423Z,10.94
2023-03-22T03:50:17.662Z,10.96
2023-03-22T03:51:19.492Z,10.96
2023-03-22T03:52:21.305Z,10.96
2023-03-22T03:53:23.170Z,10.96
2023-03-22T03:54:24.991Z,10.97
2023-03-22T03:55:26.783Z,10.96
2023-03-22T03:56:28.748Z,10.97
2023-03-22T03:57:30.557Z,10.97
2023-03-22T03:58:32.479Z,10.97
2023-03-22T03:59:34.265Z,10.97
2023-03-22T04:00:36.079Z,10.97
2023-03-22T04:01:37.939Z,10.97
2023-03-22T04:02:39.838Z,10.97
2023-03-22T04:03:41.659Z,10.98
2023-03-22T04:04:43.511Z,10.97
2023-03-22T04:05:45.290Z,10.97
2023-03-22T04:06:47.241Z,10.97
2023-03-22T04:07:49.046Z,10.97
2023-03-22T04:08:50.867Z,10.97
2023-03-22T04:09:52.690Z,10.97
2023-03-22T04:10:54.589Z,10.96
2023-03-22T04:11:56.438Z,10.96
2023-03-22T04:12:58.245Z,10.95
2023-03-22T04:14:00.078Z,10.93
2023-03-22T04:15:01.873Z,10.92
2023-03-22T04:16:03.677Z,10.91
2023-03-22T04:17:05.505Z,10.90
2023-03-22T04:18:07.315Z,10.91
2023-03-22T04:19:09.112Z,10.92
2023-03-22T04:20:11.737Z,10.92
2023-03-22T04:21:13.521Z,10.93
2023-03-22T04:22:15.352Z,10.94
2023-03-22T04:23:17.186Z,10.96
2023-03-22T04:24:18.979Z,10.98
2023-03-22T04:25:21.773Z,10.99
2023-03-22T04:26:26.177Z,11.01
2023-03-22T04:27:27.228Z,11.02
2023-03-22T04:28:29.024Z,11.04
2023-03-22T04:29:30.832Z,11.06
2023-03-22T04:30:32.625Z,11.09
2023-03-22T04:31:34.429Z,11.10
2023-03-22T04:32:36.266Z,11.11
2023-03-22T04:33:38.097Z,11.13
2023-03-22T04:34:39.903Z,11.13
2023-03-22T04:35:41.724Z,11.15
2023-03-22T04:36:43.506Z,11.16
2023-03-22T04:37:45.354Z,11.17
2023-03-22T04:38:47.159Z,11.20
2023-03-22T04:39:48.952Z,11.21
2023-03-22T04:40:50.855Z,11.21
2023-03-22T04:41:52.660Z,11.23
2023-03-22T04:42:54.552Z,11.25
2023-03-22T04:43:56.362Z,11.26
2023-03-22T04:44:58.155Z,11.29
2023-03-22T04:46:00.004Z,11.30
2023-03-22T04:47:01.793Z,11.33
2023-03-22T04:48:03.673Z,11.37
2023-03-22T04:49:05.431Z,11.40
2023-03-22T04:50:07.648Z,11.43
2023-03-22T04:51:09.450Z,11.48
2023-03-22T04:52:11.241Z,11.50
2023-03-22T04:53:13.071Z,11.54
2023-03-22T04:54:14.884Z,11.58
2023-03-22T04:55:16.703Z,11.62
2023-03-22T04:56:18.502Z,11.66
2023-03-22T04:57:20.306Z,11.68
2023-03-22T04:58:22.169Z,11.72
2023-03-22T04:59:23.938Z,11.75
2023-03-22T05:00:25.745Z,11.77
2023-03-22T05:01:27.621Z,11.81
2023-03-22T05:02:29.461Z,11.84
2023-03-22T05:03:31.289Z,11.85
2023-03-22T05:04:32.990Z,11.89
2023-03-22T05:05:34.816Z,11.93
2023-03-22T05:06:36.602Z,11.96
2023-03-22T05:07:38.395Z,12.00
2023-03-22T05:08:40.230Z,12.03
2023-03-22T05:09:42.056Z,12.08
2023-03-22T05:10:43.858Z,12.13
2023-03-22T05:11:45.684Z,12.16
2023-03-22T05:12:47.486Z,12.20
2023-03-22T05:13:49.324Z,12.25
2023-03-22T05:14:51.164Z,12.28
2023-03-22T05:15:52.994Z,12.30
2023-03-22T05:16:54.847Z,12.33
2023-03-22T05:17:56.633Z,12.36
2023-03-22T05:18:58.475Z,12.39
2023-03-22T05:20:00.281Z,12.43
2023-03-22T05:21:02.094Z,12.46
2023-03-22T05:22:03.880Z,12.49
2023-03-22T05:23:05.576Z,12.53
2023-03-22T05:24:07.415Z,12.57
2023-03-22T05:25:09.222Z,12.59
2023-03-22T05:26:11.342Z,12.63
2023-03-22T05:27:13.130Z,12.66
2023-03-22T05:28:14.928Z,12.71
2023-03-22T05:29:16.785Z,12.74
2023-03-22T05:30:18.703Z,12.78
2023-03-22T05:31:20.546Z,12.82
2023-03-22T05:32:22.298Z,12.88
2023-03-22T05:33:24.130Z,12.92
2023-03-22T05:34:25.959Z,12.97
2023-03-22T05:35:27.761Z,13.01
2023-03-22T05:36:29.562Z,13.07
2023-03-22T05:37:31.358Z,13.11
2023-03-22T05:38:33.176Z,13.16
2023-03-22T05:39:35.021Z,13.21
2023-03-22T05:40:36.833Z,13.26
2023-03-22T05:41:38.628Z,13.32
2023-03-22T05:42:40.431Z,13.36
2023-03-22T05:43:42.243Z,13.42
2023-03-22T05:44:44.097Z,13.48
2023-03-22T05:45:46.014Z,13.54
2023-03-22T05:46:47.835Z,13.59
2023-03-22T05:47:51.546Z,13.65
2023-03-22T05:48:53.208Z,13.70
2023-03-22T05:49:55.056Z,13.75
2023-03-22T05:50:57.172Z,13.76
2023-03-22T05:51:58.975Z,13.81
2023-03-22T05:53:00.797Z,13.86
2023-03-22T05:54:02.618Z,13.90
2023-03-22T05:55:04.483Z,13.95
2023-03-22T05:56:06.608Z,13.99
2023-03-22T05:57:08.419Z,14.03
2023-03-22T05:58:10.211Z,14.07
2023-03-22T05:59:12.017Z,14.12
2023-03-22T06:00:13.859Z,14.17
2023-03-22T06:01:15.680Z,14.23
2023-03-22T06:02:17.564Z,14.27
2023-03-22T06:03:19.406Z,14.30
2023-03-22T06:04:21.193Z,14.35
2023-03-22T06:05:23.335Z,14.39
2023-03-22T06:06:25.162Z,14.43
2023-03-22T06:07:26.961Z,14.47
2023-03-22T06:08:28.772Z,14.52
2023-03-22T06:09:30.590Z,14.56
2023-03-22T06:10:32.622Z,14.61
2023-03-22T06:11:34.430Z,14.65
2023-03-22T06:12:36.236Z,14.70
2023-03-22T06:13:38.052Z,14.74
2023-03-22T06:14:39.839Z,14.77
2023-03-22T06:15:41.682Z,14.82
2023-03-22T06:16:43.499Z,14.86
2023-03-22T06:17:45.289Z,14.92
2023-03-22T06:18:47.102Z,14.96
2023-03-22T06:19:48.893Z,15.01
2023-03-22T06:20:51.047Z,15.05
2023-03-22T06:21:52.908Z,15.09
2023-03-22T06:22:54.738Z,15.14
2023-03-22T06:23:56.539Z,15.17
2023-03-22T06:24:58.360Z,15.20
2023-03-22T06:26:00.260Z,15.25
2023-03-22T06:27:02.079Z,15.27
2023-03-22T06:28:03.885Z,15.31
2023-03-22T06:29:05.685Z,15.35
2023-03-22T06:30:07.797Z,15.37
2023-03-22T06:31:09.688Z,15.41
2023-03-22T06:32:11.545Z,15.45
2023-03-22T06:33:13.349Z,15.49
2023-03-22T06:34:15.212Z,15.52
2023-03-22T06:35:17.065Z,15.55
2023-03-22T06:36:19.049Z,15.59
2023-03-22T06:37:20.867Z,15.62
2023-03-22T06:38:22.660Z,15.63
2023-03-22T06:39:24.469Z,15.66
2023-03-22T06:40:26.297Z,15.70
2023-03-22T06:41:28.247Z,15.71
2023-03-22T06:42:30.062Z,15.74
2023-03-22T06:43:31.757Z,15.77
2023-03-22T06:44:33.637Z,15.81
2023-03-22T06:45:35.423Z,15.85
2023-03-22T06:46:37.421Z,15.86
2023-03-22T06:47:39.237Z,15.89
2023-03-22T06:48:41.033Z,15.93
2023-03-22T06:49:42.868Z,15.94
2023-03-22T06:50:44.862Z,15.95
2023-03-22T06:51:46.931Z,15.97
2023-03-22T06:52:48.728Z,15.99
2023-03-22T06:53:50.572Z,16.00
2023-03-22T06:54:52.381Z,16.01
2023-03-22T06:55:55.430Z,16.03
2023-03-22T06:56:57.556Z,16.04
2023-03-22T06:57:59.385Z,16.06
2023-03-22T06:59:01.190Z,16.08
2023-03-22T07:00:03.091Z,16.08
2023-03-22T07:01:04.932Z,16.11
2023-03-22T07:02:06.811Z,16.12
2023-03-22T07:03:08.644Z,16.13
2023-03-22T07:04:10.500Z,16.15
2023-03-22T07:05:12.271Z,16.16
2023-03-22T07:06:14.186Z,16.18
2023-03-22T07:07:16.022Z,16.20
2023-03-22T07:08:17.852Z,16.21
2023-03-22T07:09:19.693Z,16.22
2023-03-22T07:10:21.556Z,16.24
2023-03-22T07:11:23.401Z,16.26
2023-03-22T07:12:25.259Z,16.29
2023-03-22T07:13:27.388Z,16.32
2023-03-22T07:14:29.816Z,16.34
2023-03-22T07:15:32.155Z,16.35
2023-03-22T07:16:34.059Z,16.38
2023-03-22T07:17:35.878Z,16.40
2023-03-22T07:18:37.829Z,16.45
2023-03-22T07:19:39.665Z,16.45
2023-03-22T07:20:41.901Z,16.49
2023-03-22T07:21:43.813Z,16.52
2023-03-22T07:22:45.665Z,16.55
2023-03-22T07:23:47.481Z,16.58
2023-03-22T07:24:56.512Z,16.61
2023-03-22T07:25:52.905Z,16.64
2023-03-22T07:26:54.817Z,16.66
2023-03-22T07:27:56.667Z,16.69
2023-03-22T07:28:58.477Z,16.70
2023-03-22T07:30:00.296Z,16.74
2023-03-22T07:31:02.104Z,16.75
2023-03-22T07:32:04.030Z,16.77
2023-03-22T07:33:05.892Z,16.80
2023-03-22T07:34:07.756Z,16.82
2023-03-22T07:35:09.570Z,16.83
2023-03-22T07:36:11.536Z,16.86
2023-03-22T07:37:13.322Z,16.87
2023-03-22T07:38:16.337Z,16.89
2023-03-22T07:39:18.132Z,16.91
2023-03-22T07:40:20.006Z,16.91
2023-03-22T07:41:21.816Z,16.91
2023-03-22T07:42:23.738Z,16.91
2023-03-22T07:43:25.568Z,16.93
2023-03-22T07:44:27.373Z,16.95
2023-03-22T07:45:29.218Z,16.96
2023-03-22T07:46:31.112Z,16.96
2023-03-22T07:47:40.687Z,16.98
2023-03-22T07:48:36.543Z,16.99
2023-03-22T07:49:38.341Z,17.00
2023-03-22T07:50:40.644Z,17.03
2023-03-22T07:51:42.815Z,17.03
2023-03-22T07:52:44.609Z,17.04
2023-03-22T07:53:46.448Z,17.07
2023-03-22T07:54:48.235Z,17.08
2023-03-22T07:55:50.045Z,17.09
2023-03-22T07:56:51.851Z,17.11
2023-03-22T07:57:53.709Z,17.12
2023-03-22T07:58:55.581Z,17.14
2023-03-22T07:59:57.483Z,17.16
2023-03-22T08:00:59.365Z,17.17
2023-03-22T08:02:01.416Z,17.17
2023-03-22T08:03:03.358Z,17.20
2023-03-22T08:04:05.330Z,17.21
2023-03-22T08:05:07.104Z,17.23
2023-03-22T08:06:09.819Z,17.24
2023-03-22T08:07:11.624Z,17.26
2023-03-22T08:08:13.436Z,17.27
2023-03-22T08:09:15.267Z,17.29
2023-03-22T08:10:17.199Z,17.31
2023-03-22T08:11:18.996Z,17.33
2023-03-22T08:12:20.798Z,17.34
2023-03-22T08:13:22.626Z,17.36
2023-03-22T08:14:34.056Z,17.41
2023-03-22T08:15:28.135Z,17.41
2023-03-22T08:16:30.016Z,17.43
2023-03-22T08:17:31.862Z,17.43
2023-03-22T08:18:33.701Z,17.45
2023-03-22T08:19:35.512Z,17.48
2023-03-22T08:20:37.302Z,17.50
2023-03-22T08:21:39.224Z,17.52
2023-03-22T08:22:41.191Z,17.55
2023-03-22T08:23:42.975Z,17.57
2023-03-22T08:24:44.938Z,17.59
2023-03-22T08:25:46.726Z,17.60
2023-03-22T08:26:48.732Z,17.62
2023-03-22T08:27:50.538Z,17.63
2023-03-22T08:28:52.361Z,17.65
2023-03-22T08:29:54.220Z,17.67
2023-03-22T08:30:56.055Z,17.67
2023-03-22T08:31:57.979Z,17.69
2023-03-22T08:32:59.849Z,17.71
2023-03-22T08:34:01.652Z,17.73
2023-03-22T08:35:03.504Z,17.75
2023-03-22T08:36:05.408Z,17.77
2023-03-22T08:37:07.211Z,17.77
2023-03-22T08:38:09.042Z,17.77
2023-03-22T08:39:10.880Z,17.78
2023-03-22T08:40:12.868Z,17.78
2023-03-22T08:41:14.708Z,17.80
2023-03-22T08:42:16.531Z,17.82
2023-03-22T08:43:18.360Z,17.84
2023-03-22T08:44:20.167Z,17.85
2023-03-22T08:45:21.988Z,17.87
2023-03-22T08:46:23.799Z,17.90
2023-03-22T08:47:25.681Z,17.89
2023-03-22T08:48:27.508Z,17.89
2023-03-22T08:49:29.366Z,17.91
2023-03-22T08:50:31.196Z,17.91
2023-03-22T08:51:33.002Z,17.91
2023-03-22T08:52:34.805Z,17.94
2023-03-22T08:53:36.595Z,17.96
2023-03-22T08:54:38.411Z,17.98
2023-03-22T08:55:40.455Z,18.00
2023-03-22T08:56:42.445Z,18.01
2023-03-22T08:57:44.249Z,18.02
2023-03-22T08:58:46.058Z,18.06
2023-03-22T08:59:47.867Z,18.08
2023-03-22T09:00:50.130Z,18.08
2023-03-22T09:01:52.114Z,18.10
2023-03-22T09:02:53.926Z,18.13
2023-03-22T09:03:55.724Z,18.14
2023-03-22T09:04:57.548Z,18.15
2023-03-22T09:05:59.401Z,18.15
2023-03-22T09:07:01.349Z,18.16
2023-03-22T09:08:06.546Z,18.15
2023-03-22T09:09:06.789Z,18.17
2023-03-22T09:10:08.708Z,18.18
2023-03-22T09:11:10.564Z,18.20
2023-03-22T09:12:12.396Z,18.21
2023-03-22T09:13:14.192Z,18.22
2023-03-22T09:14:15.996Z,18.24
2023-03-22T09:15:17.832Z,18.24
2023-03-22T09:16:19.757Z,18.24
2023-03-22T09:17:22.566Z,18.28
2023-03-22T09:18:24.453Z,18.30
2023-03-22T09:19:26.249Z,18.30
2023-03-22T09:20:28.218Z,18.31
2023-03-22T09:21:30.066Z,18.29
2023-03-22T09:22:31.885Z,18.29
2023-03-22T09:23:33.693Z,18.28
2023-03-22T09:24:35.499Z,18.27
2023-03-22T09:25:37.296Z,18.25
2023-03-22T09:26:39.189Z,18.22
2023-03-22T09:27:41.010Z,18.22
2023-03-22T09:28:42.876Z,18.23
2023-03-22T09:29:44.617Z,18.24
2023-03-22T09:30:46.485Z,18.25
2023-03-22T09:31:48.394Z,18.25
2023-03-22T09:32:50.220Z,18.25
2023-03-22T09:33:51.984Z,18.27
2023-03-22T09:34:53.802Z,18.29
2023-03-22T09:35:55.639Z,18.29
2023-03-22T09:36:58.519Z,18.32
2023-03-22T09:38:00.405Z,18.33
2023-03-22T09:39:02.203Z,18.33
2023-03-22T09:40:04.002Z,18.34
2023-03-22T09:41:05.806Z,18.34
2023-03-22T09:42:07.626Z,18.36
2023-03-22T09:43:09.528Z,18.37
2023-03-22T09:44:11.326Z,18.38
2023-03-22T09:45:13.069Z,18.40
2023-03-22T09:46:15.528Z,18.40
2023-03-22T09:47:17.463Z,18.42
2023-03-22T09:48:19.286Z,18.46
2023-03-22T09:49:21.159Z,18.48
2023-03-22T09:50:22.949Z,18.49
2023-03-22T09:51:24.755Z,18.49
2023-03-22T09:52:26.630Z,18.45
2023-03-22T09:53:28.410Z,18.42
2023-03-22T09:54:30.203Z,18.40
2023-03-22T09:55:32.195Z,18.41
2023-03-22T09:56:35.113Z,18.42
2023-03-22T09:57:37.201Z,18.42
2023-03-22T09:58:39.057Z,18.45
2023-03-22T09:59:40.842Z,18.46
2023-03-22T10:00:42.803Z,18.48
2023-03-22T10:01:44.852Z,18.50
2023-03-22T10:02:46.885Z,18.53
2023-03-22T10:03:48.706Z,18.54
2023-03-22T10:04:50.586Z,18.53
2023-03-22T10:05:52.393Z,18.53
2023-03-22T10:06:54.206Z,18.54
2023-03-22T10:07:56.041Z,18.58
2023-03-22T10:08:57.849Z,18.59
2023-03-22T10:09:59.659Z,18.60
2023-03-22T10:11:01.511Z,18.60
2023-03-22T10:12:03.162Z,18.63
2023-03-22T10:13:04.988Z,18.64
2023-03-22T10:14:06.784Z,18.65
2023-03-22T10:15:08.646Z,18.64
2023-03-22T10:16:10.619Z,18.65
2023-03-22T10:17:12.494Z,18.66
2023-03-22T10:18:14.318Z,18.66
2023-03-22T10:19:16.121Z,18.64
2023-03-22T10:20:17.927Z,18.65
2023-03-22T10:21:19.764Z,18.65
2023-03-22T10:22:21.563Z,18.67
2023-03-22T10:23:23.476Z,18.67
2023-03-22T10:24:25.383Z,18.68
2023-03-22T10:25:27.307Z,18.69
2023-03-22T10:26:29.152Z,18.69
2023-03-22T10:27:30.919Z,18.70
2023-03-22T10:28:32.788Z,18.70
2023-03-22T10:29:34.606Z,18.69
2023-03-22T10:30:36.419Z,18.69
2023-03-22T10:31:38.266Z,18.70
2023-03-22T10:32:54.718Z,18.69
2023-03-22T10:33:44.550Z,18.69
2023-03-22T10:34:46.431Z,18.70
2023-03-22T10:35:48.311Z,18.71
2023-03-22T10:36:50.114Z,18.70
2023-03-22T10:37:51.953Z,18.70
2023-03-22T10:38:53.808Z,18.69
2023-03-22T10:39:55.615Z,18.70
2023-03-22T10:40:57.429Z,18.70
2023-03-22T10:41:59.227Z,18.71
2023-03-22T10:43:01.059Z,18.72
2023-03-22T10:44:02.899Z,18.71
2023-03-22T10:45:04.711Z,18.72
2023-03-22T10:46:06.793Z,18.69
2023-03-22T10:47:08.728Z,18.69
2023-03-22T10:48:10.677Z,18.69
2023-03-22T10:49:12.442Z,18.70
2023-03-22T10:50:14.552Z,18.71
2023-03-22T10:51:16.645Z,18.68
2023-03-22T10:52:18.450Z,18.69
2023-03-22T10:53:20.246Z,18.69
2023-03-22T10:54:22.105Z,18.68
2023-03-22T10:55:23.902Z,18.66
2023-03-22T10:56:25.761Z,18.64
2023-03-22T10:57:27.558Z,18.64
2023-03-22T10:58:29.370Z,18.64
2023-03-22T10:59:31.204Z,18.65
2023-03-22T11:00:33.057Z,18.66
2023-03-22T11:01:34.900Z,18.67
2023-03-22T11:02:36.834Z,18.68
2023-03-22T11:03:38.801Z,18.67
2023-03-22T11:04:40.595Z,18.66
2023-03-22T11:05:42.530Z,18.64
2023-03-22T11:06:44.400Z,18.64
2023-03-22T11:07:46.190Z,18.64
2023-03-22T11:08:47.980Z,18.63
2023-03-22T11:09:49.801Z,18.63
2023-03-22T11:10:51.980Z,18.65
2023-03-22T11:11:53.823Z,18.65
2023-03-22T11:12:55.615Z,18.67
2023-03-22T11:13:57.411Z,18.67
2023-03-22T11:14:59.233Z,18.68
2023-03-22T11:16:01.068Z,18.66
2023-03-22T11:17:02.816Z,18.66
2023-03-22T11:18:04.616Z,18.66
2023-03-22T11:19:06.411Z,18.65
2023-03-22T11:20:08.257Z,18.67
2023-03-22T11:21:10.009Z,18.67
2023-03-22T11:22:11.809Z,18.66
2023-03-22T11:23:13.606Z,18.66
2023-03-22T11:24:15.401Z,18.66
2023-03-22T11:25:17.213Z,18.65
2023-03-22T11:26:19.044Z,18.64
2023-03-22T11:27:20.865Z,18.64
2023-03-22T11:28:22.651Z,18.66
2023-03-22T11:29:24.530Z,18.68
2023-03-22T11:30:26.781Z,18.68
2023-03-22T11:31:28.598Z,18.68
2023-03-22T11:32:30.467Z,18.69
2023-03-22T11:33:32.284Z,18.69
2023-03-22T11:34:34.072Z,18.67
2023-03-22T11:35:35.918Z,18.66
2023-03-22T11:36:37.684Z,18.67
2023-03-22T11:37:39.489Z,18.68
2023-03-22T11:38:41.275Z,18.69
2023-03-22T11:39:43.079Z,18.69
2023-03-22T11:40:44.903Z,18.71
2023-03-22T11:41:46.687Z,18.70
2023-03-22T11:42:48.564Z,18.71
2023-03-22T11:43:51.422Z,18.70
2023-03-22T11:44:53.761Z,18.70
2023-03-22T11:45:55.614Z,18.70
2023-03-22T11:46:57.397Z,18.71
2023-03-22T11:47:59.263Z,18.73
2023-03-22T11:49:01.510Z,18.74
2023-03-22T11:50:03.489Z,18.74
2023-03-22T11:51:05.301Z,18.74
2023-03-22T11:52:07.104Z,18.74
2023-03-22T11:53:08.916Z,18.73
2023-03-22T11:54:10.682Z,18.73
2023-03-22T11:55:12.496Z,18.73
2023-03-22T11:56:14.332Z,18.74
2023-03-22T11:57:16.118Z,18.74
2023-03-22T11:58:17.912Z,18.74
2023-03-22T11:59:19.704Z,18.75
2023-03-22T12:00:21.529Z,18.74
2023-03-22T12:01:23.324Z,18.74
2023-03-22T12:02:25.230Z,18.72
2023-03-22T12:03:27.185Z,18.71
2023-03-22T12:04:29.001Z,18.69
2023-03-22T12:05:30.793Z,18.69
2023-03-22T12:06:32.857Z,18.69
2023-03-22T12:07:34.627Z,18.69
2023-03-22T12:08:36.429Z,18.68
2023-03-22T12:09:38.218Z,18.68
2023-03-22T12:10:40.031Z,18.68
2023-03-22T12:11:41.838Z,18.68
2023-03-22T12:12:43.627Z,18.65
2023-03-22T12:13:45.474Z,18.63
2023-03-22T12:14:47.382Z,18.63
2023-03-22T12:15:49.196Z,18.63
2023-03-22T12:16:51.127Z,18.63
2023-03-22T12:17:53.030Z,18.64
2023-03-22T12:18:54.903Z,18.65
2023-03-22T12:19:56.690Z,18.65
2023-03-22T12:20:58.795Z,18.65
2023-03-22T12:22:00.636Z,18.64
2023-03-22T12:23:02.439Z,18.65
2023-03-22T12:24:04.231Z,18.66
2023-03-22T12:25:06.018Z,18.67
2023-03-22T12:26:08.517Z,18.64
2023-03-22T12:27:10.350Z,18.65
2023-03-22T12:28:12.152Z,18.63
2023-03-22T12:29:13.936Z,18.62
2023-03-22T12:30:15.728Z,18.61
2023-03-22T12:31:17.601Z,18.59
2023-03-22T12:32:19.525Z,18.56
2023-03-22T12:33:21.362Z,18.55
2023-03-22T12:34:23.141Z,18.54
2023-03-22T12:35:24.938Z,18.54
2023-03-22T12:36:26.766Z,18.55
2023-03-22T12:37:30.096Z,18.55
2023-03-22T12:38:32.180Z,18.55
2023-03-22T12:39:34.300Z,18.56
2023-03-22T12:40:36.091Z,18.57
2023-03-22T12:41:37.893Z,18.56
2023-03-22T12:42:47.922Z,18.58
2023-03-22T12:43:43.321Z,18.57
2023-03-22T12:44:55.515Z,18.59
2023-03-22T12:45:48.724Z,18.56
2023-03-22T12:46:50.638Z,18.56
2023-03-22T12:47:52.695Z,18.53
2023-03-22T12:48:54.762Z,18.53
2023-03-22T12:49:56.534Z,18.53
2023-03-22T12:50:58.436Z,18.51
2023-03-22T12:52:00.226Z,18.51
2023-03-22T12:53:02.044Z,18.52
2023-03-22T12:54:03.721Z,18.51
2023-03-22T12:55:05.517Z,18.52
2023-03-22T12:56:07.830Z,18.53
2023-03-22T12:57:09.611Z,18.52
2023-03-22T12:58:11.433Z,18.52
2023-03-22T12:59:13.239Z,18.53
2023-03-22T13:00:15.149Z,18.53
2023-03-22T13:01:17.146Z,18.56
2023-03-22T13:02:18.958Z,18.56
2023-03-22T13:03:20.912Z,18.57
2023-03-22T13:04:22.808Z,18.57
2023-03-22T13:05:24.513Z,18.57
2023-03-22T13:06:26.459Z,18.57
2023-03-22T13:07:28.268Z,18.56
2023-03-22T13:08:32.124Z,18.52
2023-03-22T13:09:33.693Z,18.48
2023-03-22T13:10:35.517Z,18.46
2023-03-22T13:11:37.216Z,18.47
2023-03-22T13:12:39.011Z,18.48
2023-03-22T13:13:40.860Z,18.49
2023-03-22T13:14:42.659Z,18.49
2023-03-22T13:15:44.487Z,18.49
2023-03-22T13:16:46.399Z,18.50